createdAt,value
2023-05-04T00:00:02.643Z,8.80
2023-05-04T00:05:06.259Z,8.50
2023-05-04T00:10:08.841Z,8.40
2023-05-04T00:15:10.939Z,8.20
2023-05-04T00:20:14.769Z,8.10
2023-05-04T00:25:16.639Z,8.00
2023-05-04T00:30:18.546Z,7.90
2023-05-04T00:35:20.366Z,7.80
2023-05-04T00:40:22.273Z,7.80
2023-05-04T00:45:24.091Z,7.80
2023-05-04T00:50:27.165Z,7.70
2023-05-04T00:55:29.296Z,7.00
2023-05-04T01:00:31.193Z,7.50
2023-05-04T01:05:36.813Z,7.50
2023-05-04T01:10:49.637Z,7.50
2023-05-04T01:15:52.075Z,7.60
2023-05-04T01:20:54.059Z,7.60
2023-05-04T01:26:01.605Z,7.50
2023-05-04T01:31:05.085Z,7.50
2023-05-04T01:36:07.415Z,7.50
2023-05-04T01:41:09.216Z,7.50
2023-05-04T01:46:11.276Z,7.50
2023-05-04T01:51:13.171Z,7.50
2023-05-04T01:56:15.299Z,7.50
2023-05-04T02:01:17.120Z,7.40
2023-05-04T02:06:19.047Z,7.40
2023-05-04T02:11:21.075Z,7.50
2023-05-04T02:16:22.962Z,7.50
2023-05-04T02:21:25.635Z,7.50
2023-05-04T02:26:27.466Z,7.50
2023-05-04T02:31:29.534Z,7.60
2023-05-04T02:36:31.550Z,7.50
2023-05-04T02:41:33.350Z,7.60
2023-05-04T02:46:35.168Z,7.60
2023-05-04T02:51:37.025Z,7.50
2023-05-04T02:56:38.844Z,7.40
2023-05-04T03:01:40.929Z,7.30
2023-05-04T03:06:42.801Z,7.20
2023-05-04T03:11:44.712Z,7.20
2023-05-04T03:16:47.037Z,7.10
2023-05-04T03:21:50.442Z,7.00
2023-05-04T03:26:52.277Z,6.90
2023-05-04T03:31:54.096Z,6.80
2023-05-04T03:36:55.914Z,6.80
2023-05-04T03:41:57.708Z,6.80
2023-05-04T03:46:59.520Z,6.90
2023-05-04T03:52:01.382Z,6.90
2023-05-04T03:57:04.413Z,6.90
2023-05-04T04:02:06.444Z,7.00
2023-05-04T04:07:08.643Z,7.10
2023-05-04T04:12:10.483Z,7.30
2023-05-04T04:17:12.276Z,7.30
2023-05-04T04:22:14.475Z,7.70
2023-05-04T04:27:16.257Z,7.50
2023-05-04T04:32:18.084Z,7.60
2023-05-04T04:37:19.904Z,7.80
2023-05-04T04:42:21.804Z,7.90
2023-05-04T04:47:23.650Z,8.10
2023-05-04T04:52:25.981Z,8.30
2023-05-04T04:57:30.551Z,8.50
2023-05-04T05:02:48.535Z,8.80
2023-05-04T05:07:50.383Z,9.40
2023-05-04T05:13:06.742Z,9.90
2023-05-04T05:18:08.777Z,10.30
2023-05-04T05:23:11.040Z,10.70
2023-05-04T05:28:15.995Z,11.10
2023-05-04T05:33:17.988Z,11.50
2023-05-04T05:38:19.970Z,11.70
2023-05-04T05:43:21.799Z,12.00
2023-05-04T05:48:23.891Z,12.20
2023-05-04T05:53:25.844Z,12.40
2023-05-04T05:58:29.853Z,12.80
2023-05-04T06:03:31.717Z,13.00
2023-05-04T06:08:33.678Z,13.30
2023-05-04T06:13:36.529Z,13.80
2023-05-04T06:18:38.390Z,14.00
2023-05-04T06:23:40.680Z,14.40
2023-05-04T06:28:42.487Z,14.50
2023-05-04T06:33:44.281Z,14.90
2023-05-04T06:38:46.424Z,15.00
2023-05-04T06:43:48.225Z,15.20
2023-05-04T06:48:50.028Z,15.50
2023-05-04T06:53:51.867Z,15.50
2023-05-04T06:58:53.733Z,15.80
2023-05-04T07:03:58.358Z,16.00
2023-05-04T07:09:00.500Z,16.40
2023-05-04T07:14:02.377Z,16.50
2023-05-04T07:19:07.336Z,16.80
2023-05-04T07:24:09.508Z,16.90
2023-05-04T07:29:11.496Z,17.10
2023-05-04T07:34:13.326Z,17.30
2023-05-04T07:39:16.740Z,17.50
2023-05-04T07:44:18.622Z,18.00
2023-05-04T07:49:20.565Z,18.40
2023-05-04T07:54:23.083Z,18.30
2023-05-04T07:59:25.024Z,18.60
2023-05-04T08:04:26.994Z,19.00
2023-05-04T08:09:28.825Z,19.40
2023-05-04T08:14:30.695Z,19.50
2023-05-04T08:19:32.906Z,19.90
2023-05-04T08:24:35.227Z,19.90
2023-05-04T08:29:43.091Z,19.90
2023-05-04T08:35:11.026Z,20.00
2023-05-04T08:40:13.708Z,20.10
2023-05-04T08:45:16.559Z,19.90
2023-05-04T08:50:18.491Z,20.00
2023-05-04T08:55:21.007Z,20.20
2023-05-04T09:00:30.061Z,20.60
2023-05-04T09:05:32.600Z,20.80
2023-05-04T09:10:34.583Z,20.90
2023-05-04T09:15:36.432Z,21.30
2023-05-04T09:20:46.857Z,21.30
2023-05-04T09:25:55.271Z,21.70
2023-05-04T09:31:00.978Z,21.50
2023-05-04T09:36:17.793Z,21.60
2023-05-04T09:41:31.489Z,21.80
2023-05-04T09:46:34.561Z,22.60
2023-05-04T09:51:38.895Z,23.10
2023-05-04T09:56:49.594Z,22.70
2023-05-04T10:01:52.359Z,22.20
2023-05-04T10:06:55.318Z,22.20
2023-05-04T10:12:00.562Z,22.10
2023-05-04T10:17:24.143Z,22.10
2023-05-04T10:22:41.186Z,22.00
2023-05-04T10:27:55.075Z,22.20
2023-05-04T10:32:58.093Z,22.50
2023-05-04T10:38:00.759Z,22.40
2023-05-04T10:43:02.924Z,22.70
2023-05-04T10:48:05.520Z,22.80
2023-05-04T10:53:07.803Z,22.80
2023-05-04T10:58:11.336Z,23.10
2023-05-04T11:03:14.247Z,23.20
2023-05-04T11:08:24.446Z,23.30
2023-05-04T11:13:29.278Z,23.20
2023-05-04T11:18:34.151Z,23.00
2023-05-04T11:23:36.630Z,23.00
2023-05-04T11:28:39.569Z,23.10
2023-05-04T11:33:48.084Z,23.30
2023-05-04T11:38:50.950Z,23.20
2023-05-04T11:43:53.184Z,23.30
2023-05-04T11:48:55.026Z,23.30
2023-05-04T11:53:57.131Z,23.30
2023-05-04T11:59:08.101Z,23.30
2023-05-04T12:04:11.986Z,23.30
2023-05-04T12:09:13.838Z,23.30
2023-05-04T12:14:17.187Z,23.40
2023-05-04T12:19:19.105Z,23.50
2023-05-04T12:24:24.201Z,23.40
2023-05-04T12:29:26.582Z,23.20
2023-05-04T12:34:28.448Z,23.10
2023-05-04T12:39:32.552Z,23.00
2023-05-04T12:44:39.655Z,22.80
2023-05-04T12:49:41.497Z,22.70
2023-05-04T12:54:43.357Z,22.90
2023-05-04T12:59:45.957Z,22.80
2023-05-04T13:04:48.032Z,22.80
2023-05-04T13:09:50.217Z,22.70
2023-05-04T13:14:55.825Z,22.90
2023-05-04T13:20:42.306Z,23.00
2023-05-04T13:26:03.487Z,23.00
2023-05-04T13:31:05.800Z,22.70
2023-05-04T13:36:07.989Z,22.60
2023-05-04T13:41:09.825Z,22.70
2023-05-04T13:51:41.254Z,22.90
2023-05-04T13:56:58.830Z,22.90
2023-05-04T14:02:04.380Z,22.80
2023-05-04T14:07:16.486Z,22.80
2023-05-04T14:12:26.402Z,22.80
2023-05-04T14:17:39.482Z,22.70
2023-05-04T14:22:49.115Z,22.60
2023-05-04T14:27:51.430Z,22.40
2023-05-04T14:32:58.326Z,22.10
2023-05-04T14:38:02.340Z,22.10
2023-05-04T14:43:08.612Z,22.00
2023-05-04T14:48:19.383Z,22.10
2023-05-04T14:53:30.472Z,22.00
2023-05-04T14:58:32.289Z,21.90
2023-05-04T15:03:59.459Z,21.90
2023-05-04T15:09:06.108Z,21.90
2023-05-04T15:14:22.089Z,21.70
2023-05-04T15:19:30.315Z,21.50
2023-05-04T15:24:32.320Z,21.40
2023-05-04T15:29:34.178Z,21.30
2023-05-04T15:34:36.195Z,21.20
2023-05-04T15:39:38.055Z,21.10
2023-05-04T15:44:42.933Z,21.00
2023-05-04T15:49:45.111Z,20.70
2023-05-04T15:54:47.379Z,20.60
2023-05-04T15:59:49.647Z,20.40
2023-05-04T16:04:55.347Z,20.10
2023-05-04T16:09:59.024Z,20.00
2023-05-04T16:15:00.854Z,19.90
2023-05-04T16:20:03.996Z,19.90
2023-05-04T16:25:07.867Z,19.80
2023-05-04T16:30:11.258Z,19.70
2023-05-04T16:35:13.302Z,19.70
2023-05-04T16:40:15.854Z,19.60
2023-05-04T16:45:17.760Z,19.60
2023-05-04T16:50:19.639Z,19.50
2023-05-04T16:55:21.539Z,19.40
2023-05-04T17:00:24.444Z,19.30
2023-05-04T17:05:26.634Z,19.20
2023-05-04T17:10:28.481Z,19.10
2023-05-04T17:15:30.337Z,19.00
2023-05-04T17:20:32.329Z,19.00
2023-05-04T17:25:35.430Z,18.80
2023-05-04T17:30:38.109Z,18.70
2023-05-04T17:35:40.593Z,18.50
2023-05-04T17:40:42.435Z,18.30
2023-05-04T17:45:44.274Z,18.10
2023-05-04T17:50:48.194Z,17.90
2023-05-04T17:55:53.270Z,17.60
2023-05-04T18:00:55.198Z,17.40
2023-05-04T18:05:59.184Z,17.20
2023-05-04T18:11:01.197Z,17.00
2023-05-04T18:16:03.129Z,16.70
2023-05-04T18:21:13.415Z,16.30
2023-05-04T18:26:22.793Z,16.10
2023-05-04T18:31:32.421Z,15.90
2023-05-04T18:36:40.528Z,15.60
2023-05-04T18:41:42.456Z,15.50
2023-05-04T18:46:47.226Z,15.20
2023-05-04T18:51:49.082Z,15.00
2023-05-04T18:56:50.946Z,14.80
2023-05-04T19:01:53.037Z,14.60
2023-05-04T19:06:55.003Z,14.40
2023-05-04T19:11:57.485Z,14.20
2023-05-04T19:17:25.894Z,14.10
2023-05-04T19:22:27.925Z,14.00
2023-05-04T19:27:31.212Z,14.00
2023-05-04T19:32:33.118Z,13.80
2023-05-04T19:37:38.494Z,13.70
2023-05-04T19:42:46.367Z,13.50
2023-05-04T19:47:50.200Z,13.40
2023-05-04T19:52:52.241Z,13.20
2023-05-04T19:57:54.264Z,13.20
2023-05-04T20:02:56.227Z,13.00
2023-05-04T20:07:58.231Z,12.90
2023-05-04T20:13:00.366Z,12.80
2023-05-04T20:18:02.546Z,12.60
2023-05-04T20:23:04.481Z,12.50
2023-05-04T20:28:06.825Z,12.40
2023-05-04T20:33:20.006Z,12.40
2023-05-04T20:38:21.855Z,12.40
2023-05-04T20:43:23.721Z,12.30
2023-05-04T20:48:25.646Z,12.30
2023-05-04T20:53:33.194Z,12.10
2023-05-04T20:58:36.182Z,12.00
2023-05-04T21:03:38.237Z,12.00
2023-05-04T21:08:43.960Z,12.00
2023-05-04T21:13:45.887Z,11.90
2023-05-04T21:18:47.862Z,11.80
2023-05-04T21:23:49.674Z,11.80
2023-05-04T21:28:51.749Z,11.70
2023-05-04T21:33:56.740Z,11.50
2023-05-04T21:38:59.140Z,11.50
2023-05-04T21:44:00.999Z,11.50
2023-05-04T21:49:02.889Z,11.50
2023-05-04T21:54:04.763Z,11.50
2023-05-04T21:59:06.630Z,11.40
2023-05-04T22:04:08.674Z,11.40
2023-05-04T22:09:10.603Z,11.30
2023-05-04T22:14:12.591Z,11.20
2023-05-04T22:19:14.437Z,11.20
2023-05-04T22:24:16.319Z,11.10
2023-05-04T22:29:18.177Z,11.00
2023-05-04T22:34:19.989Z,11.00
2023-05-04T22:39:22.511Z,10.80
2023-05-04T22:44:24.325Z,10.80
2023-05-04T22:49:26.185Z,10.60
2023-05-04T22:54:28.055Z,10.70
2023-05-04T22:59:31.642Z,10.50
2023-05-04T23:04:33.790Z,10.40
2023-05-04T23:09:45.796Z,10.30
2023-05-04T23:14:52.363Z,10.30
2023-05-04T23:19:54.288Z,10.20
2023-05-04T23:24:56.127Z,10.10
2023-05-04T23:29:58.034Z,10.10
2023-05-04T23:34:59.981Z,9.90
2023-05-04T23:40:02.089Z,9.90
2023-05-04T23:45:04.943Z,9.90
2023-05-04T23:50:07.871Z,9.80
2023-05-04T23:55:10.111Z,9.70
